Time;durP1;ratioP1;P1;durP2;ratioP2;P2;SDS_P1;SDS_P2;PMS_P1;PMS_P2;Temp;Humidity;BMP_temperature;BMP_pressure;BME280_temperature;BME280_humidity;BME280_pressure;Samples;Min_cycle;Max_cycle;Signal;HPM_P1;HPM_P2
2022/10/05 00:01:09;;;;;;;4.63;4.20;;;9.60;99.90;;;;;;484681;241;28581;-77
2022/10/05 00:03:10;;;;;;;5.23;4.73;;;9.60;99.90;;;;;;484660;241;28579;-76
2022/10/05 00:05:11;;;;;;;6.97;5.60;;;9.50;99.90;;;;;;484676;241;28153;-79
2022/10/05 00:07:13;;;;;;;7.13;4.73;;;9.60;99.90;;;;;;484609;242;28026;-77
2022/10/05 00:09:14;;;;;;;5.43;4.77;;;9.60;99.90;;;;;;484668;242;27830;-77
2022/10/05 00:11:15;;;;;;;5.70;5.10;;;9.60;99.90;;;;;;484671;242;27610;-76
2022/10/05 00:13:16;;;;;;;6.60;4.93;;;9.60;99.90;;;;;;484689;242;28044;-78
2022/10/05 00:15:18;;;;;;;6.37;5.10;;;9.60;99.90;;;;;;484668;242;27938;-78
2022/10/05 00:17:19;;;;;;;5.37;4.87;;;9.60;99.90;;;;;;484604;242;27969;-78
2022/10/05 00:19:20;;;;;;;7.13;4.50;;;9.60;99.90;;;;;;484687;245;27973;-76
2022/10/05 00:21:21;;;;;;;5.33;4.77;;;9.70;99.90;;;;;;484669;242;28026;-77
2022/10/05 00:23:22;;;;;;;7.97;5.73;;;9.70;99.90;;;;;;484641;242;27879;-76
2022/10/05 00:25:24;;;;;;;6.40;5.73;;;9.70;99.90;;;;;;484574;243;27934;-77
2022/10/05 00:27:25;;;;;;;8.77;5.50;;;9.60;99.90;;;;;;484909;234;27852;-76
2022/10/05 00:29:26;;;;;;;6.17;5.57;;;9.60;99.90;;;;;;484998;234;27786;-76
2022/10/05 00:31:27;;;;;;;6.37;5.37;;;9.60;99.90;;;;;;484953;234;28537;-77
2022/10/05 00:33:29;;;;;;;6.23;5.30;;;9.70;99.90;;;;;;485016;243;28424;-77
2022/10/05 00:35:30;;;;;;;5.57;4.47;;;9.70;99.90;;;;;;484960;241;28190;-77
2022/10/05 00:37:31;;;;;;;7.13;4.67;;;9.80;99.90;;;;;;484974;234;28573;-77
2022/10/05 00:39:32;;;;;;;6.53;5.20;;;9.80;99.90;;;;;;484946;234;27861;-76
2022/10/05 00:41:34;;;;;;;5.57;4.60;;;9.70;99.90;;;;;;485010;234;27893;-77
2022/10/05 00:43:35;;;;;;;5.20;4.40;;;9.70;99.90;;;;;;484966;243;27929;-76
2022/10/05 00:45:36;;;;;;;9.20;4.90;;;9.60;99.90;;;;;;484691;234;27786;-77
2022/10/05 00:47:37;;;;;;;5.77;4.90;;;9.60;99.90;;;;;;484884;234;27939;-77
2022/10/05 00:49:39;;;;;;;5.60;5.10;;;9.60;99.90;;;;;;484998;234;27843;-77
2022/10/05 00:51:40;;;;;;;4.63;4.23;;;9.60;99.90;;;;;;484971;234;27951;-77
2022/10/05 00:53:42;;;;;;;5.73;4.53;;;9.50;99.90;;;;;;485024;234;27996;-77
2022/10/05 00:55:42;;;;;;;5.40;4.90;;;9.60;99.90;;;;;;482960;234;27925;-77
2022/10/05 00:57:44;;;;;;;5.73;4.87;;;9.50;99.90;;;;;;463047;246;28055;-78
2022/10/05 00:59:45;;;;;;;5.50;5.00;;;9.50;99.90;;;;;;481760;241;28125;-76
2022/10/05 01:01:46;;;;;;;5.13;4.63;;;9.60;99.90;;;;;;463090;246;27526;-78
2022/10/05 01:03:47;;;;;;;5.70;4.67;;;9.70;99.90;;;;;;463074;246;28091;-76
2022/10/05 01:05:49;;;;;;;5.37;4.87;;;9.70;99.90;;;;;;463084;246;28209;-77
2022/10/05 01:07:50;;;;;;;6.30;5.40;;;9.70;99.90;;;;;;463024;254;28499;-76
2022/10/05 01:09:51;;;;;;;5.90;5.00;;;9.80;99.90;;;;;;463047;246;28021;-78
2022/10/05 01:11:52;;;;;;;7.03;4.97;;;9.80;99.90;;;;;;481763;241;28743;-78
2022/10/05 01:13:54;;;;;;;5.37;4.87;;;9.70;99.90;;;;;;463079;246;28003;-76
2022/10/05 01:15:55;;;;;;;5.33;4.60;;;9.80;99.90;;;;;;463062;247;27934;-76
2022/10/05 01:17:57;;;;;;;6.07;4.50;;;9.80;99.90;;;;;;463040;246;27960;-76
2022/10/05 01:19:58;;;;;;;4.60;4.20;;;9.80;99.90;;;;;;463070;246;28002;-79
2022/10/05 01:21:59;;;;;;;4.77;4.33;;;9.90;99.90;;;;;;463070;246;27983;-76
2022/10/05 01:24:00;;;;;;;4.73;4.33;;;9.80;99.90;;;;;;472824;246;27951;-77
2022/10/05 01:26:01;;;;;;;5.23;4.20;;;9.80;99.90;;;;;;472792;250;27969;-78
2022/10/05 01:28:02;;;;;;;4.30;3.93;;;9.70;99.90;;;;;;472772;246;28116;-77
2022/10/05 01:30:04;;;;;;;4.63;4.17;;;9.70;99.90;;;;;;472798;242;28005;-77
2022/10/05 01:32:05;;;;;;;4.30;3.90;;;9.70;99.90;;;;;;472828;242;27985;-77
2022/10/05 01:34:06;;;;;;;4.30;3.90;;;9.70;99.90;;;;;;472839;248;28056;-77
2022/10/05 01:36:07;;;;;;;4.00;3.60;;;9.60;99.90;;;;;;472745;242;27969;-77
2022/10/05 01:38:09;;;;;;;4.63;4.20;;;9.60;99.90;;;;;;472805;242;28064;-77
2022/10/05 01:40:10;;;;;;;6.50;4.40;;;9.60;99.90;;;;;;472830;245;28013;-77
2022/10/05 01:42:11;;;;;;;5.30;4.27;;;9.70;99.90;;;;;;472815;246;28214;-76
2022/10/05 01:44:12;;;;;;;4.93;4.43;;;9.70;99.90;;;;;;472838;246;28823;-77
2022/10/05 01:46:14;;;;;;;5.63;4.47;;;9.80;99.90;;;;;;475521;242;28453;-76
2022/10/05 01:48:15;;;;;;;6.10;5.30;;;9.70;99.90;;;;;;484664;240;28561;-77
2022/10/05 01:50:16;;;;;;;5.13;4.63;;;9.80;99.90;;;;;;484658;241;28421;-76
2022/10/05 01:52:17;;;;;;;4.60;4.20;;;9.70;99.90;;;;;;484663;242;28035;-76
2022/10/05 01:54:19;;;;;;;4.30;4.00;;;9.80;99.90;;;;;;484635;242;27899;-77
2022/10/05 01:56:20;;;;;;;5.03;4.50;;;9.80;99.90;;;;;;482204;237;28075;-77
2022/10/05 01:58:21;;;;;;;4.90;4.40;;;9.80;99.90;;;;;;481757;241;28003;-76
2022/10/05 02:00:22;;;;;;;5.10;4.50;;;9.80;99.90;;;;;;463115;246;28078;-77
2022/10/05 02:02:24;;;;;;;4.83;4.33;;;9.80;99.90;;;;;;463089;246;28140;-77
2022/10/05 02:04:25;;;;;;;5.30;4.60;;;9.80;99.90;;;;;;463081;246;28025;-78
2022/10/05 02:06:26;;;;;;;5.40;4.10;;;9.80;99.90;;;;;;463711;247;27986;-77
2022/10/05 02:08:27;;;;;;;5.20;4.70;;;9.90;99.90;;;;;;463094;247;27931;-77
2022/10/05 02:10:29;;;;;;;4.40;4.00;;;9.90;99.90;;;;;;463063;247;27790;-78
2022/10/05 02:12:30;;;;;;;5.00;4.50;;;9.90;99.90;;;;;;463081;254;28078;-77
2022/10/05 02:14:31;;;;;;;5.00;4.50;;;10.00;99.90;;;;;;463102;247;28111;-77
2022/10/05 02:16:32;;;;;;;7.00;5.63;;;10.10;99.90;;;;;;476936;242;28583;-77
2022/10/05 02:18:34;;;;;;;7.23;5.93;;;10.20;99.90;;;;;;476534;237;28020;-78
2022/10/05 02:20:35;;;;;;;6.60;5.90;;;10.30;99.90;;;;;;463075;251;28369;-78
2022/10/05 02:22:36;;;;;;;7.20;6.33;;;10.30;99.90;;;;;;476586;237;27878;-76
2022/10/05 02:24:37;;;;;;;10.53;7.13;;;10.40;99.90;;;;;;476505;236;28098;-77
2022/10/05 02:26:39;;;;;;;7.80;6.63;;;10.40;99.90;;;;;;463033;254;27700;-76
2022/10/05 02:28:40;;;;;;;8.87;6.90;;;10.40;99.90;;;;;;463083;254;28034;-78
2022/10/05 02:30:41;;;;;;;7.60;5.77;;;10.40;99.90;;;;;;463060;257;27779;-77
2022/10/05 02:32:43;;;;;;;7.70;5.90;;;10.40;99.90;;;;;;463064;248;28088;-78
2022/10/05 02:34:44;;;;;;;6.80;5.43;;;10.40;99.90;;;;;;463061;248;28189;-77
2022/10/05 02:36:45;;;;;;;8.13;6.57;;;10.40;99.90;;;;;;476476;246;27852;-77
2022/10/05 02:38:46;;;;;;;6.30;5.70;;;10.40;99.90;;;;;;463067;253;28000;-80
2022/10/05 02:40:47;;;;;;;5.50;5.00;;;10.40;99.90;;;;;;468254;252;28529;-78
2022/10/05 02:42:49;;;;;;;6.60;5.37;;;10.30;99.90;;;;;;468251;246;28692;-76
2022/10/05 02:44:50;;;;;;;6.43;5.50;;;10.30;99.90;;;;;;469134;245;28492;-77
2022/10/05 02:46:51;;;;;;;6.47;5.03;;;10.20;99.90;;;;;;476564;237;27947;-78
2022/10/05 02:48:52;;;;;;;5.30;4.80;;;10.10;99.90;;;;;;476560;237;27645;-77
2022/10/05 02:50:54;;;;;;;6.80;5.23;;;10.10;99.90;;;;;;476607;237;27391;-78
2022/10/05 02:52:55;;;;;;;5.40;4.67;;;10.00;99.90;;;;;;476561;246;28050;-76
2022/10/05 02:54:57;;;;;;;6.40;4.90;;;10.00;99.90;;;;;;476594;237;27998;-77
2022/10/05 02:56:57;;;;;;;5.33;4.83;;;10.00;99.90;;;;;;476474;237;27903;-77
2022/10/05 02:58:59;;;;;;;6.47;5.47;;;9.90;99.90;;;;;;476610;237;28008;-78
2022/10/05 03:01:00;;;;;;;5.30;4.67;;;9.80;99.90;;;;;;476553;237;27989;-76
2022/10/05 03:03:01;;;;;;;5.10;4.60;;;9.80;99.90;;;;;;476612;237;27878;-76
2022/10/05 03:05:03;;;;;;;5.10;4.60;;;9.80;99.90;;;;;;477956;237;28628;-76
2022/10/05 03:07:04;;;;;;;5.70;5.10;;;9.70;99.90;;;;;;463035;253;28541;-77
2022/10/05 03:09:05;;;;;;;6.90;5.70;;;9.70;99.90;;;;;;463090;246;28720;-76
2022/10/05 03:11:06;;;;;;;6.10;5.33;;;9.50;99.90;;;;;;463077;246;29068;-77
2022/10/05 03:13:07;;;;;;;6.60;5.13;;;9.60;99.90;;;;;;463082;246;28710;-77
2022/10/05 03:15:09;;;;;;;5.57;5.00;;;9.60;99.90;;;;;;463065;246;28050;-78
2022/10/05 03:17:10;;;;;;;6.37;5.50;;;9.50;99.90;;;;;;463025;253;27991;-76
2022/10/05 03:19:11;;;;;;;6.10;5.00;;;9.60;99.90;;;;;;463066;246;28081;-78
2022/10/05 03:21:12;;;;;;;5.37;4.83;;;9.60;99.90;;;;;;463084;247;27976;-77
2022/10/05 03:23:14;;;;;;;6.00;4.67;;;9.60;99.90;;;;;;463098;246;28077;-76
2022/10/05 03:25:15;;;;;;;5.27;4.77;;;9.50;99.90;;;;;;463070;246;28106;-76
2022/10/05 03:27:17;;;;;;;5.67;4.60;;;9.50;99.90;;;;;;463058;254;27883;-78
2022/10/05 03:29:17;;;;;;;5.30;4.77;;;9.50;99.90;;;;;;472783;246;27833;-77
2022/10/05 03:31:19;;;;;;;4.50;4.10;;;9.50;99.90;;;;;;472838;242;27994;-76
2022/10/05 03:33:20;;;;;;;5.10;4.40;;;9.50;99.90;;;;;;472818;242;28142;-77
2022/10/05 03:35:21;;;;;;;7.00;5.10;;;9.40;99.90;;;;;;472688;242;27733;-78
2022/10/05 03:37:22;;;;;;;4.93;4.43;;;9.40;99.90;;;;;;481292;238;27923;-77
2022/10/05 03:39:24;;;;;;;4.90;4.40;;;9.40;99.90;;;;;;481303;241;27985;-77
2022/10/05 03:41:25;;;;;;;5.07;4.50;;;9.30;99.90;;;;;;481333;241;28702;-76
2022/10/05 03:43:26;;;;;;;4.30;3.90;;;9.40;99.90;;;;;;481302;243;28166;-78
2022/10/05 03:45:27;;;;;;;4.73;3.93;;;9.50;99.90;;;;;;481359;244;28056;-76
2022/10/05 03:47:29;;;;;;;4.40;3.63;;;9.40;99.90;;;;;;481258;241;28740;-78
2022/10/05 03:49:30;;;;;;;4.43;4.03;;;9.30;99.90;;;;;;481360;241;27679;-76
2022/10/05 03:51:31;;;;;;;4.57;4.17;;;9.30;99.90;;;;;;481304;244;28038;-76
2022/10/05 03:53:32;;;;;;;4.20;3.80;;;9.30;99.90;;;;;;481342;241;27840;-76
2022/10/05 03:55:34;;;;;;;4.07;3.70;;;9.30;99.90;;;;;;481342;242;28019;-77
2022/10/05 03:57:35;;;;;;;3.83;3.53;;;9.30;99.90;;;;;;480390;242;27831;-76
2022/10/05 03:59:36;;;;;;;4.20;3.80;;;9.20;99.90;;;;;;480467;242;27922;-76
2022/10/05 04:01:37;;;;;;;6.00;3.93;;;9.20;99.90;;;;;;480449;244;27930;-77
2022/10/05 04:03:39;;;;;;;4.40;3.90;;;9.30;99.90;;;;;;480453;242;27950;-77
2022/10/05 04:05:40;;;;;;;3.50;3.20;;;9.30;99.90;;;;;;480456;242;28041;-78
2022/10/05 04:07:45;;;;;;;3.60;3.30;;;9.20;99.90;;;;;;480422;242;27736;-76
2022/10/05 04:09:45;;;;;;;4.63;4.13;;;9.20;99.90;;;;;;480389;242;28646;-77
2022/10/05 04:11:46;;;;;;;5.17;4.47;;;9.20;99.90;;;;;;480453;243;28550;-77
2022/10/05 04:13:48;;;;;;;4.70;4.10;;;9.20;99.90;;;;;;480442;242;28434;-77
2022/10/05 04:15:49;;;;;;;3.70;3.40;;;9.10;99.90;;;;;;480436;242;28422;-76
2022/10/05 04:17:50;;;;;;;4.10;3.70;;;9.10;99.90;;;;;;480379;242;27937;-77
2022/10/05 04:19:51;;;;;;;6.20;4.03;;;9.00;99.90;;;;;;480468;243;27823;-78
2022/10/05 04:21:53;;;;;;;4.03;3.63;;;9.00;99.90;;;;;;480479;243;27737;-77
2022/10/05 04:23:54;;;;;;;4.37;3.97;;;9.00;99.90;;;;;;480455;243;27876;-76
2022/10/05 04:25:55;;;;;;;3.40;3.10;;;9.00;99.90;;;;;;480426;242;27890;-76
2022/10/05 04:27:56;;;;;;;3.77;3.47;;;8.90;99.90;;;;;;480412;243;27822;-76
2022/10/05 04:29:58;;;;;;;4.20;3.80;;;8.90;99.90;;;;;;480455;242;27988;-77
2022/10/05 04:31:59;;;;;;;3.40;3.10;;;8.90;99.90;;;;;;480476;242;27546;-76
2022/10/05 04:34:00;;;;;;;4.60;3.90;;;8.80;99.90;;;;;;480452;242;27617;-76
2022/10/05 04:36:01;;;;;;;3.90;3.50;;;8.80;99.90;;;;;;480366;243;27864;-78
2022/10/05 04:38:03;;;;;;;3.73;3.40;;;8.80;99.90;;;;;;480411;242;27745;-77
2022/10/05 04:40:04;;;;;;;4.50;4.10;;;8.90;99.90;;;;;;480474;242;27814;-77
2022/10/05 04:42:07;;;;;;;9.03;3.80;;;8.90;99.90;;;;;;480430;242;27717;-78
2022/10/05 04:44:06;;;;;;;3.77;3.47;;;8.90;99.90;;;;;;480337;242;27927;-76
2022/10/05 04:46:08;;;;;;;3.50;3.20;;;9.00;99.90;;;;;;480218;242;28037;-77
2022/10/05 04:48:09;;;;;;;3.50;3.20;;;9.10;99.90;;;;;;480456;243;28447;-75
2022/10/05 04:50:10;;;;;;;4.00;3.60;;;9.10;99.90;;;;;;480444;244;28314;-75
2022/10/05 04:52:11;;;;;;;3.50;3.20;;;9.20;99.90;;;;;;480459;242;28606;-78
2022/10/05 04:54:13;;;;;;;2.90;2.70;;;9.30;99.90;;;;;;480461;244;27833;-77
2022/10/05 04:56:14;;;;;;;2.93;2.73;;;9.30;99.90;;;;;;480543;242;28808;-76
2022/10/05 04:58:15;;;;;;;3.77;3.47;;;9.30;99.90;;;;;;483328;243;27874;-78
2022/10/05 05:00:16;;;;;;;3.90;3.47;;;9.40;99.90;;;;;;483609;240;27838;-77
2022/10/05 05:02:18;;;;;;;3.80;3.27;;;9.40;99.90;;;;;;483508;240;27517;-78
2022/10/05 05:04:19;;;;;;;3.80;3.43;;;9.50;99.90;;;;;;483235;240;27778;-76
2022/10/05 05:06:20;;;;;;;3.80;3.50;;;9.50;99.90;;;;;;481630;241;27657;-78
2022/10/05 05:08:21;;;;;;;3.50;3.20;;;9.50;99.90;;;;;;481304;241;27932;-78
2022/10/05 05:10:23;;;;;;;3.53;3.13;;;9.60;99.90;;;;;;481334;241;27947;-77
2022/10/05 05:12:24;;;;;;;4.93;4.43;;;9.60;99.90;;;;;;481284;241;27958;-77
2022/10/05 05:14:25;;;;;;;4.10;3.70;;;9.60;99.90;;;;;;481352;241;27854;-77
2022/10/05 05:16:26;;;;;;;4.47;4.07;;;9.70;99.90;;;;;;481257;241;27955;-77
2022/10/05 05:18:28;;;;;;;4.33;3.93;;;9.80;99.90;;;;;;481356;241;27856;-78
2022/10/05 05:20:29;;;;;;;4.50;4.10;;;9.90;99.90;;;;;;481286;241;28185;-78
2022/10/05 05:22:30;;;;;;;4.50;4.10;;;9.90;99.90;;;;;;481344;241;28518;-77
2022/10/05 05:24:31;;;;;;;4.93;4.43;;;10.00;99.90;;;;;;481281;243;28591;-78
2022/10/05 05:26:33;;;;;;;5.73;4.60;;;10.00;99.90;;;;;;484595;243;27865;-78
2022/10/05 05:28:34;;;;;;;4.73;4.33;;;10.00;99.90;;;;;;485002;234;27979;-77
2022/10/05 05:30:35;;;;;;;5.60;4.90;;;10.00;99.90;;;;;;484927;234;28066;-76
2022/10/05 05:32:36;;;;;;;12.30;5.27;;;10.00;99.90;;;;;;484990;234;27624;-77
2022/10/05 05:34:38;;;;;;;6.27;4.97;;;10.00;99.90;;;;;;484884;234;27435;-78
2022/10/05 05:36:39;;;;;;;5.20;4.60;;;10.00;99.90;;;;;;485857;242;28043;-78
2022/10/05 05:38:40;;;;;;;5.27;4.40;;;10.00;99.90;;;;;;486043;242;27914;-78
2022/10/05 05:40:41;;;;;;;4.47;4.07;;;10.00;99.90;;;;;;486049;242;28056;-78
2022/10/05 05:42:43;;;;;;;6.07;4.87;;;9.90;99.90;;;;;;486053;242;27804;-77
2022/10/05 05:44:44;;;;;;;6.30;5.10;;;10.00;99.90;;;;;;485743;242;28622;-77
2022/10/05 05:46:45;;;;;;;5.63;4.90;;;10.00;99.90;;;;;;484276;243;28593;-76
2022/10/05 05:48:46;;;;;;;4.90;4.50;;;10.00;99.90;;;;;;484561;242;28572;-79
2022/10/05 05:50:48;;;;;;;4.83;4.17;;;10.00;99.90;;;;;;484556;242;27635;-78
2022/10/05 05:52:49;;;;;;;5.67;5.07;;;10.00;99.90;;;;;;485276;245;27737;-78
2022/10/05 05:54:50;;;;;;;5.03;4.63;;;10.00;99.90;;;;;;485283;244;27934;-78
2022/10/05 05:56:51;;;;;;;4.90;4.40;;;10.10;99.90;;;;;;484169;242;27872;-79
2022/10/05 05:58:53;;;;;;;5.53;4.60;;;10.10;99.90;;;;;;483661;242;27794;-78
2022/10/05 06:00:54;;;;;;;5.10;4.60;;;10.10;99.90;;;;;;483660;246;27613;-77
2022/10/05 06:02:55;;;;;;;4.67;4.17;;;10.10;99.90;;;;;;483643;246;28082;-77
2022/10/05 06:04:56;;;;;;;5.40;4.90;;;10.20;99.90;;;;;;483637;242;28161;-79
2022/10/05 06:06:58;;;;;;;5.07;4.57;;;10.20;99.90;;;;;;483575;242;27964;-78
2022/10/05 06:09:01;;;;;;;6.93;5.53;;;10.20;99.90;;;;;;483624;246;28461;-78
2022/10/05 06:11:00;;;;;;;5.80;4.70;;;10.30;99.90;;;;;;483524;244;28564;-77
2022/10/05 06:13:01;;;;;;;7.60;5.13;;;10.30;99.90;;;;;;483643;242;28634;-77
2022/10/05 06:15:03;;;;;;;8.30;5.00;;;10.40;99.90;;;;;;483356;242;27968;-79
2022/10/05 06:17:04;;;;;;;5.33;4.83;;;10.40;99.90;;;;;;485517;241;27824;-78
2022/10/05 06:19:05;;;;;;;5.93;5.20;;;10.50;99.90;;;;;;485593;241;27805;-78
2022/10/05 06:21:06;;;;;;;7.43;5.90;;;10.50;99.90;;;;;;485571;241;28028;-77
2022/10/05 06:23:08;;;;;;;7.13;5.80;;;10.60;99.90;;;;;;485598;241;27869;-76
2022/10/05 06:25:09;;;;;;;9.03;7.17;;;10.60;99.90;;;;;;485585;243;27859;-77
2022/10/05 06:27:10;;;;;;;7.00;6.30;;;10.70;99.90;;;;;;485530;241;27924;-78
2022/10/05 06:29:11;;;;;;;7.27;6.30;;;10.70;99.90;;;;;;485569;241;28023;-79
2022/10/05 06:31:13;;;;;;;7.97;6.23;;;10.70;99.90;;;;;;485579;241;28496;-77
2022/10/05 06:33:14;;;;;;;8.37;6.40;;;10.70;99.90;;;;;;485580;241;28678;-79
2022/10/05 06:35:15;;;;;;;11.50;6.73;;;10.80;99.90;;;;;;482828;241;28321;-77
2022/10/05 06:37:16;;;;;;;10.10;7.30;;;10.80;99.90;;;;;;475707;246;27643;-79
2022/10/05 06:39:18;;;;;;;8.63;6.93;;;10.80;99.90;;;;;;475748;246;27967;-77
2022/10/05 06:41:19;;;;;;;9.17;7.40;;;10.80;99.90;;;;;;475752;246;27983;-80
2022/10/05 06:43:20;;;;;;;7.80;6.37;;;10.90;99.90;;;;;;475753;246;27715;-79
2022/10/05 06:45:21;;;;;;;8.10;6.60;;;10.80;99.90;;;;;;475753;246;28069;-80
2022/10/05 06:47:23;;;;;;;7.87;7.07;;;10.90;99.90;;;;;;475697;246;28008;-78
2022/10/05 06:49:24;;;;;;;8.57;6.30;;;10.90;99.90;;;;;;475743;246;28004;-80
2022/10/05 06:51:25;;;;;;;7.30;5.50;;;10.90;99.90;;;;;;475726;246;27982;-79
2022/10/05 06:53:26;;;;;;;6.67;5.77;;;11.00;99.90;;;;;;475749;246;27967;-79
2022/10/05 06:55:28;;;;;;;6.10;5.50;;;11.00;99.90;;;;;;475727;246;28436;-79
2022/10/05 06:57:29;;;;;;;6.33;5.63;;;11.10;99.90;;;;;;475681;246;28598;-79
2022/10/05 06:59:30;;;;;;;5.27;4.77;;;11.10;99.90;;;;;;475732;246;29629;-77
2022/10/05 07:01:31;;;;;;;6.83;5.63;;;11.20;99.90;;;;;;475767;246;28193;-77
2022/10/05 07:03:33;;;;;;;5.53;4.97;;;11.20;99.90;;;;;;475762;246;28159;-80
2022/10/05 07:05:34;;;;;;;6.53;5.30;;;11.30;99.90;;;;;;475735;246;27914;-79
2022/10/05 07:07:35;;;;;;;6.03;5.43;;;11.30;99.90;;;;;;475706;246;28019;-79
2022/10/05 07:09:36;;;;;;;6.20;5.03;;;11.30;99.90;;;;;;475744;246;28116;-79
2022/10/05 07:11:38;;;;;;;5.40;4.90;;;11.40;99.90;;;;;;475744;246;27987;-78
2022/10/05 07:13:39;;;;;;;6.70;5.77;;;11.40;99.90;;;;;;475753;246;28110;-80
2022/10/05 07:15:40;;;;;;;6.33;5.73;;;11.40;99.90;;;;;;475730;246;28096;-80
2022/10/05 07:17:43;;;;;;;7.50;6.50;;;11.40;99.90;;;;;;475682;246;28900;-81
2022/10/05 07:19:43;;;;;;;8.70;7.00;;;11.40;99.90;;;;;;475718;246;28569;-78
2022/10/05 07:21:44;;;;;;;7.53;6.60;;;11.40;99.90;;;;;;475747;246;28610;-78
2022/10/05 07:23:45;;;;;;;6.57;5.87;;;11.50;99.90;;;;;;475745;246;27978;-80
2022/10/05 07:25:46;;;;;;;5.93;5.33;;;11.50;99.90;;;;;;476126;244;28102;-77
2022/10/05 07:27:48;;;;;;;8.50;6.60;;;11.50;99.90;;;;;;475659;250;28010;-80
2022/10/05 07:29:49;;;;;;;6.63;6.03;;;11.50;99.90;;;;;;475699;250;28072;-79
2022/10/05 07:31:50;;;;;;;5.80;5.30;;;11.60;99.90;;;;;;475688;246;27998;-79
2022/10/05 07:33:52;;;;;;;7.00;5.97;;;11.60;99.90;;;;;;475710;250;28027;-78
2022/10/05 07:38:12;;;;;;;7.03;6.20;;;11.70;99.90;;;;;;475696;251;28236;-78
2022/10/05 07:40:13;;;;;;;8.77;6.57;;;11.70;99.90;;;;;;475705;246;28128;-81
2022/10/05 07:42:17;;;;;;;7.03;6.10;;;11.80;99.90;;;;;;475703;250;27978;-80
2022/10/05 07:44:16;;;;;;;6.20;5.60;;;11.80;99.90;;;;;;475619;246;28086;-80
2022/10/05 07:46:17;;;;;;;7.70;5.47;;;11.90;99.90;;;;;;479738;242;28809;-79
2022/10/05 07:48:18;;;;;;;7.03;5.53;;;11.90;99.90;;;;;;479948;244;28741;-79
2022/10/05 07:50:20;;;;;;;7.50;5.80;;;11.90;99.90;;;;;;479966;242;28710;-78
2022/10/05 07:52:21;;;;;;;8.07;6.57;;;12.00;99.90;;;;;;479985;244;28307;-79
2022/10/05 07:54:22;;;;;;;6.67;5.60;;;12.00;99.90;;;;;;479985;242;28083;-79
2022/10/05 07:56:23;;;;;;;9.23;6.13;;;12.00;99.90;;;;;;479912;242;28217;-78
2022/10/05 07:58:27;;;;;;;7.33;6.07;;;12.00;99.90;;;;;;479950;244;28222;-80
2022/10/05 08:00:26;;;;;;;8.20;6.10;;;12.00;99.90;;;;;;479858;244;28151;-79
2022/10/05 08:02:27;;;;;;;7.33;6.07;;;12.10;99.90;;;;;;479976;242;28201;-79
2022/10/05 08:04:28;;;;;;;6.90;5.70;;;12.10;99.90;;;;;;479945;244;28222;-78
2022/10/05 08:06:30;;;;;;;7.43;6.00;;;12.10;99.90;;;;;;479913;242;28195;-79
2022/10/05 08:08:31;;;;;;;5.57;5.07;;;12.20;99.90;;;;;;479973;242;28905;-78
2022/10/05 08:10:32;;;;;;;9.00;6.40;;;12.20;99.90;;;;;;480001;242;28881;-79
2022/10/05 08:12:34;;;;;;;6.93;6.23;;;12.30;99.90;;;;;;479986;242;28708;-79
2022/10/05 08:14:36;;;;;;;6.53;5.83;;;12.30;99.90;;;;;;479984;244;28024;-79
2022/10/05 08:16:36;;;;;;;5.97;5.13;;;12.30;99.90;;;;;;479902;242;28191;-80
2022/10/05 08:18:37;;;;;;;6.80;5.63;;;12.40;99.90;;;;;;479977;242;28114;-80
2022/10/05 08:20:38;;;;;;;7.03;5.30;;;12.40;99.90;;;;;;479998;244;28301;-80
2022/10/05 08:22:40;;;;;;;6.20;5.60;;;12.50;99.90;;;;;;480006;242;28360;-79
2022/10/05 08:24:41;;;;;;;5.80;5.20;;;12.50;99.90;;;;;;479908;243;28072;-81
2022/10/05 08:26:42;;;;;;;5.43;4.70;;;12.50;99.90;;;;;;479939;244;28561;-80
2022/10/05 08:28:45;;;;;;;6.73;5.13;;;12.60;99.90;;;;;;479975;242;28397;-78
2022/10/05 08:30:45;;;;;;;7.83;5.50;;;12.60;99.90;;;;;;479889;242;28266;-79
2022/10/05 08:32:46;;;;;;;9.50;6.20;;;12.60;99.90;;;;;;479981;242;28687;-79
2022/10/05 08:34:47;;;;;;;6.17;5.57;;;12.60;99.90;;;;;;479882;243;28631;-80
2022/10/05 08:36:48;;;;;;;6.13;5.53;;;12.70;99.90;;;;;;483589;242;28689;-78
2022/10/05 08:38:50;;;;;;;5.93;5.27;;;12.70;99.90;;;;;;483662;242;28600;-79
2022/10/05 08:40:51;;;;;;;5.90;5.30;;;12.70;99.90;;;;;;483647;242;28405;-77
2022/10/05 08:42:52;;;;;;;5.03;4.53;;;12.70;99.90;;;;;;483653;242;28064;-80
2022/10/05 08:44:54;;;;;;;7.20;5.83;;;12.90;99.90;;;;;;483630;246;27965;-80
2022/10/05 08:46:55;;;;;;;5.53;4.77;;;12.90;99.90;;;;;;483613;242;28014;-79
2022/10/05 08:48:56;;;;;;;5.30;4.73;;;12.90;99.90;;;;;;483647;242;28302;-80
2022/10/05 08:50:57;;;;;;;6.13;5.10;;;13.00;99.90;;;;;;483631;242;28710;-81
2022/10/05 08:52:58;;;;;;;5.10;4.57;;;13.10;99.90;;;;;;483628;242;28832;-80
2022/10/05 08:55:00;;;;;;;6.83;4.70;;;13.10;99.90;;;;;;483646;242;28665;-80
2022/10/05 08:57:01;;;;;;;5.67;5.17;;;13.20;99.90;;;;;;483605;242;28531;-78
2022/10/05 08:59:02;;;;;;;6.10;5.00;;;13.30;99.90;;;;;;483641;246;28837;-80
2022/10/05 09:01:03;;;;;;;5.50;5.00;;;13.40;99.90;;;;;;483648;242;28283;-79
2022/10/05 09:03:05;;;;;;;4.60;4.10;;;13.50;99.90;;;;;;483652;242;28223;-79
2022/10/05 09:05:06;;;;;;;8.83;4.90;;;13.50;99.90;;;;;;483657;242;28650;-80
2022/10/05 09:07:08;;;;;;;5.50;4.60;;;13.60;99.90;;;;;;483593;242;28189;-79
2022/10/05 09:09:09;;;;;;;5.73;4.87;;;13.70;99.90;;;;;;483604;242;28243;-79
2022/10/05 09:11:10;;;;;;;4.40;4.00;;;13.60;99.90;;;;;;483649;242;28030;-80
2022/10/05 09:13:11;;;;;;;4.30;3.83;;;13.80;99.90;;;;;;483653;244;28255;-79
2022/10/05 09:15:12;;;;;;;4.10;3.57;;;13.90;99.90;;;;;;483640;245;28271;-80
2022/10/05 09:17:14;;;;;;;4.20;3.80;;;13.80;99.90;;;;;;483600;242;28481;-79
2022/10/05 09:19:15;;;;;;;3.90;3.20;;;13.80;99.90;;;;;;483631;242;28798;-80
2022/10/05 09:21:16;;;;;;;3.80;3.50;;;13.80;99.90;;;;;;483638;242;28570;-79
2022/10/05 09:23:17;;;;;;;5.80;4.10;;;13.80;99.90;;;;;;483642;242;28312;-79
2022/10/05 09:25:19;;;;;;;4.40;4.00;;;13.80;99.90;;;;;;483630;242;28336;-77
2022/10/05 09:27:20;;;;;;;7.17;4.40;;;13.80;99.90;;;;;;483594;242;28189;-81
2022/10/05 09:29:21;;;;;;;4.33;3.93;;;13.70;99.90;;;;;;483661;242;28191;-80
2022/10/05 09:31:22;;;;;;;4.30;3.90;;;13.80;99.90;;;;;;483663;242;28184;-80
2022/10/05 09:33:24;;;;;;;13.73;4.50;;;13.90;99.90;;;;;;483645;242;28373;-79
2022/10/05 09:35:25;;;;;;;6.83;4.20;;;13.90;99.90;;;;;;483602;242;28280;-80
2022/10/05 09:37:26;;;;;;;6.60;4.27;;;14.00;99.90;;;;;;483595;242;28383;-79
2022/10/05 09:39:27;;;;;;;3.47;3.23;;;14.00;99.90;;;;;;483645;246;28505;-79
2022/10/05 09:41:29;;;;;;;4.60;4.20;;;14.20;99.90;;;;;;483654;242;28912;-80
2022/10/05 09:43:30;;;;;;;4.70;4.17;;;14.20;99.90;;;;;;483632;242;28946;-79
2022/10/05 09:45:32;;;;;;;3.60;3.30;;;14.20;99.90;;;;;;483626;242;30227;-79
2022/10/05 09:47:32;;;;;;;3.70;3.40;;;14.20;99.90;;;;;;483548;242;28727;-78
2022/10/05 09:49:34;;;;;;;4.00;3.33;;;14.30;99.90;;;;;;483658;242;28579;-79
2022/10/05 09:51:35;;;;;;;3.70;3.37;;;14.50;99.90;;;;;;483646;244;28468;-81
2022/10/05 09:53:39;;;;;;;3.87;3.40;;;14.50;99.90;;;;;;483632;242;28564;-80
2022/10/05 09:55:38;;;;;;;3.43;3.13;;;14.50;99.90;;;;;;483375;246;28480;-80
2022/10/05 09:57:39;;;;;;;4.23;3.83;;;14.60;99.90;;;;;;483570;242;28754;-80
2022/10/05 09:59:41;;;;;;;4.10;3.70;;;14.60;99.90;;;;;;483643;242;28431;-79
2022/10/05 10:01:41;;;;;;;4.13;3.60;;;14.60;99.90;;;;;;483610;242;28716;-78
2022/10/05 10:03:42;;;;;;;4.17;3.87;;;14.80;99.90;;;;;;483623;242;29052;-78
2022/10/05 10:05:44;;;;;;;4.80;3.63;;;14.90;99.90;;;;;;483644;244;29477;-80
2022/10/05 10:07:45;;;;;;;4.27;3.83;;;14.90;99.90;;;;;;483605;242;29333;-78
2022/10/05 10:09:46;;;;;;;4.03;3.53;;;15.00;99.90;;;;;;483632;242;28879;-79
2022/10/05 10:11:47;;;;;;;4.77;3.70;;;15.00;99.90;;;;;;483670;244;28803;-80
2022/10/05 10:13:52;;;;;;;4.40;3.80;;;14.90;99.90;;;;;;483642;244;28831;-79
2022/10/05 10:15:51;;;;;;;4.33;4.03;;;14.90;99.90;;;;;;483403;242;28434;-78
2022/10/05 10:17:51;;;;;;;4.07;3.77;;;14.80;99.90;;;;;;483542;242;28718;-80
2022/10/05 10:19:52;;;;;;;4.27;3.87;;;14.70;99.90;;;;;;483659;242;28843;-79
2022/10/05 10:21:54;;;;;;;4.23;3.63;;;14.60;99.90;;;;;;483638;244;28731;-80
2022/10/05 10:23:57;;;;;;;4.50;3.20;;;14.50;99.90;;;;;;483646;242;28535;-81
2022/10/05 10:25:56;;;;;;;4.90;3.90;;;14.50;99.90;;;;;;484112;243;28761;-80
2022/10/05 10:27:57;;;;;;;3.70;3.40;;;14.40;99.90;;;;;;485536;241;29408;-80
2022/10/05 10:29:59;;;;;;;4.07;3.70;;;14.50;99.90;;;;;;485579;243;28887;-80
2022/10/05 10:32:00;;;;;;;3.40;3.10;;;14.50;99.90;;;;;;485592;243;28314;-78
2022/10/05 10:34:01;;;;;;;3.90;3.60;;;14.60;99.90;;;;;;485577;241;28439;-81
2022/10/05 10:36:02;;;;;;;3.67;3.30;;;14.60;99.90;;;;;;483771;242;28309;-80